Time;durP1;ratioP1;P1;durP2;ratioP2;P2;SDS_P1;SDS_P2;PMS_P1;PMS_P2;Temp;Humidity;BMP_temperature;BMP_pressure;BME280_temperature;BME280_humidity;BME280_pressure;Samples;Min_cycle;Max_cycle;Signal;HPM_P1;HPM_P2
2021/10/22 00:00:28;;;;;;;3.62;1.60;;;22.20;41.40;;;;;;1891824;76;21059;-31
2021/10/22 00:02:57;;;;;;;9.13;1.82;;;22.20;41.60;;;;;;1891937;76;21125;-32
2021/10/22 00:05:24;;;;;;;5.30;1.47;;;22.20;41.60;;;;;;1892033;76;21555;-32
2021/10/22 00:07:52;;;;;;;7.00;1.95;;;22.20;41.60;;;;;;1891756;76;21541;-32
2021/10/22 00:10:19;;;;;;;10.50;1.98;;;22.20;41.50;;;;;;1891819;75;21231;-31
2021/10/22 00:12:47;;;;;;;6.15;1.70;;;22.20;41.50;;;;;;1891811;76;21071;-31
2021/10/22 00:15:15;;;;;;;7.40;1.82;;;22.20;41.50;;;;;;1891872;76;21098;-31
2021/10/22 00:17:42;;;;;;;5.30;1.60;;;22.20;41.50;;;;;;1891801;76;21067;-31
2021/10/22 00:20:10;;;;;;;5.75;2.12;;;22.20;41.50;;;;;;1891887;76;21079;-31
2021/10/22 00:22:38;;;;;;;5.12;1.75;;;22.20;41.60;;;;;;1891930;76;21533;-32
2021/10/22 00:25:07;;;;;;;5.80;1.52;;;22.20;41.70;;;;;;1891922;76;21585;-31
2021/10/22 00:27:34;;;;;;;10.20;1.20;;;22.20;41.70;;;;;;1891821;76;21592;-32
2021/10/22 00:30:02;;;;;;;7.33;1.45;;;22.20;41.60;;;;;;1891786;76;21067;-31
2021/10/22 00:32:29;;;;;;;7.15;1.65;;;22.20;41.40;;;;;;1891810;76;21044;-32
2021/10/22 00:34:57;;;;;;;5.25;1.60;;;22.20;41.30;;;;;;1891848;76;21142;-32
2021/10/22 00:37:25;;;;;;;6.92;2.35;;;22.20;41.50;;;;;;1891789;76;21078;-32
2021/10/22 00:39:52;;;;;;;4.28;1.77;;;22.20;41.40;;;;;;1892080;76;21497;-31
2021/10/22 00:42:20;;;;;;;8.93;2.00;;;22.20;41.40;;;;;;1891929;76;21559;-31
2021/10/22 00:44:48;;;;;;;7.10;1.67;;;22.20;41.50;;;;;;1891751;76;21063;-30
2021/10/22 00:47:16;;;;;;;5.35;1.77;;;22.10;41.50;;;;;;1891812;76;21129;-32
2021/10/22 00:49:45;;;;;;;5.45;1.37;;;22.20;41.60;;;;;;1891868;76;21517;-31
2021/10/22 00:52:13;;;;;;;5.55;1.30;;;22.10;41.60;;;;;;1891912;76;21149;-32
2021/10/22 00:54:40;;;;;;;6.62;1.65;;;22.10;41.40;;;;;;1891805;76;21071;-31
2021/10/22 00:57:07;;;;;;;6.30;1.50;;;22.20;41.40;;;;;;1834242;76;21047;-31
2021/10/22 00:59:35;;;;;;;8.60;1.82;;;22.20;41.40;;;;;;1891823;76;21136;-31
2021/10/22 01:02:03;;;;;;;7.65;1.57;;;22.20;41.40;;;;;;1891681;76;21059;-31
2021/10/22 01:04:31;;;;;;;5.22;1.60;;;22.20;41.50;;;;;;1891820;76;21540;-31
2021/10/22 01:07:00;;;;;;;6.87;1.98;;;22.20;41.30;;;;;;1891764;76;21051;-32
2021/10/22 01:09:28;;;;;;;6.95;1.57;;;22.20;40.80;;;;;;1891777;75;21157;-32
2021/10/22 01:11:55;;;;;;;6.40;1.50;;;22.10;40.50;;;;;;1891819;76;21144;-31
2021/10/22 01:14:23;;;;;;;11.22;2.17;;;22.10;40.70;;;;;;1891834;76;21532;-32
2021/10/22 01:16:50;;;;;;;6.83;2.20;;;22.10;41.00;;;;;;1891926;76;21115;-31
2021/10/22 01:19:19;;;;;;;7.22;1.50;;;22.10;41.20;;;;;;1891751;76;21059;-31
2021/10/22 01:21:48;;;;;;;6.85;1.72;;;22.10;41.30;;;;;;1891897;76;21590;-32
2021/10/22 01:24:16;;;;;;;8.03;1.55;;;22.10;41.40;;;;;;1891715;76;21603;-32
2021/10/22 01:26:44;;;;;;;8.03;1.60;;;22.10;41.60;;;;;;1891792;76;21063;-31
2021/10/22 01:29:11;;;;;;;6.12;1.17;;;22.10;41.40;;;;;;1891770;76;21047;-32
2021/10/22 01:31:39;;;;;;;8.48;1.82;;;22.10;41.40;;;;;;1892028;76;21043;-31
2021/10/22 01:34:06;;;;;;;7.75;1.95;;;22.10;41.30;;;;;;1892072;76;21493;-31
2021/10/22 01:36:34;;;;;;;12.93;2.72;;;22.10;41.30;;;;;;1891877;76;21461;-31
2021/10/22 01:39:03;;;;;;;22.52;2.90;;;22.10;41.50;;;;;;1891813;76;21044;-31
2021/10/22 01:41:31;;;;;;;7.62;1.90;;;22.10;41.70;;;;;;1891773;76;21059;-31
2021/10/22 01:44:02;;;;;;;11.08;1.77;;;22.20;41.60;;;;;;1891772;76;21137;-31
2021/10/22 01:46:31;;;;;;;10.05;1.82;;;22.20;41.50;;;;;;1892055;76;21036;-32
2021/10/22 01:48:59;;;;;;;7.42;1.55;;;22.20;41.20;;;;;;1892164;76;21485;-31
2021/10/22 01:51:27;;;;;;;6.20;1.82;;;22.20;41.30;;;;;;1891718;76;21091;-32
2021/10/22 01:53:55;;;;;;;10.18;1.82;;;22.20;41.20;;;;;;1891736;76;21122;-31
2021/10/22 01:56:22;;;;;;;6.45;1.98;;;22.20;41.10;;;;;;1891713;76;21072;-31
2021/10/22 01:58:50;;;;;;;10.18;2.22;;;22.20;41.10;;;;;;1891759;76;21068;-31
2021/10/22 02:01:18;;;;;;;6.78;1.50;;;22.20;41.10;;;;;;1891779;76;21493;-31
2021/10/22 02:03:45;;;;;;;6.95;1.70;;;22.10;41.20;;;;;;1860237;76;21533;-31
2021/10/22 02:06:13;;;;;;;8.58;1.87;;;22.10;41.20;;;;;;1891747;76;21035;-31
2021/10/22 02:08:41;;;;;;;12.50;1.67;;;22.10;41.30;;;;;;1891750;75;21525;-31
2021/10/22 02:11:09;;;;;;;5.62;1.77;;;22.20;41.30;;;;;;1891800;76;21524;-31
2021/10/22 02:13:36;;;;;;;9.10;2.12;;;22.20;41.10;;;;;;1891842;76;21092;-31
2021/10/22 02:16:04;;;;;;;5.00;1.50;;;22.20;40.90;;;;;;1891803;76;21060;-31
2021/10/22 02:18:32;;;;;;;8.38;2.25;;;22.20;41.00;;;;;;1891867;76;21512;-31
2021/10/22 02:21:00;;;;;;;10.53;2.35;;;22.20;41.00;;;;;;1891837;76;21584;-31
2021/10/22 02:23:27;;;;;;;8.13;1.98;;;22.20;40.50;;;;;;1891879;76;21574;-31
2021/10/22 02:25:55;;;;;;;7.17;2.05;;;22.20;40.60;;;;;;1891754;76;21098;-31
2021/10/22 02:28:22;;;;;;;7.25;1.82;;;22.10;40.60;;;;;;1891918;76;21552;-31
2021/10/22 02:30:50;;;;;;;6.83;1.50;;;22.10;40.70;;;;;;1891903;76;21567;-31
2021/10/22 02:33:17;;;;;;;10.43;2.00;;;22.10;40.80;;;;;;1892035;76;21560;-32
2021/10/22 02:35:45;;;;;;;14.58;2.20;;;22.10;40.90;;;;;;1891873;76;21070;-31
2021/10/22 02:38:13;;;;;;;9.35;2.47;;;22.10;41.00;;;;;;1891916;76;21071;-31
2021/10/22 02:40:41;;;;;;;6.53;1.95;;;22.10;41.10;;;;;;1891881;76;21067;-31
2021/10/22 02:43:08;;;;;;;8.08;1.50;;;22.10;41.10;;;;;;1891896;76;21126;-31
2021/10/22 02:45:36;;;;;;;8.38;1.55;;;22.10;41.00;;;;;;1891801;76;21111;-31
2021/10/22 02:48:04;;;;;;;7.00;1.52;;;22.10;40.90;;;;;;1891851;76;21064;-31
2021/10/22 02:50:31;;;;;;;8.18;1.90;;;22.10;40.90;;;;;;1891864;76;21121;-31
2021/10/22 02:53:03;;;;;;;9.75;2.22;;;22.10;41.10;;;;;;1891936;76;21511;-31
2021/10/22 02:55:30;;;;;;;;;;;22.10;41.10;;;;;;1894741;76;21502;-32
2021/10/22 02:57:57;;;;;;;13.50;2.75;;;22.00;41.30;;;;;;1891844;76;20163;-32
2021/10/22 03:00:25;;;;;;;14.95;2.20;;;21.90;41.50;;;;;;1891722;76;21087;-32
2021/10/22 03:02:53;;;;;;;7.95;2.00;;;22.00;41.20;;;;;;1891870;76;21537;-32
2021/10/22 03:05:20;;;;;;;12.03;2.52;;;22.10;41.20;;;;;;1891837;76;21144;-32
2021/10/22 03:07:48;;;;;;;10.85;2.72;;;22.10;41.30;;;;;;1891962;76;21485;-32
2021/10/22 03:10:16;;;;;;;7.78;1.57;;;22.20;41.20;;;;;;1891903;75;21608;-31
2021/10/22 03:12:43;;;;;;;7.80;2.15;;;22.20;41.00;;;;;;1891857;76;21532;-31
2021/10/22 03:15:11;;;;;;;9.58;2.27;;;22.20;40.80;;;;;;1891821;76;21052;-32
2021/10/22 03:17:39;;;;;;;5.10;1.85;;;22.20;40.50;;;;;;1891855;76;21544;-31
2021/10/22 03:20:07;;;;;;;5.15;1.77;;;22.20;40.20;;;;;;1891764;76;21083;-32
2021/10/22 03:22:35;;;;;;;6.28;1.90;;;22.20;40.60;;;;;;1891768;76;21633;-32
2021/10/22 03:25:04;;;;;;;5.85;1.62;;;22.10;40.40;;;;;;1892022;76;21598;-31
2021/10/22 03:27:32;;;;;;;6.25;1.87;;;22.10;40.40;;;;;;1891849;76;21055;-32
2021/10/22 03:30:00;;;;;;;7.58;2.12;;;22.10;40.50;;;;;;1891792;76;21067;-31
2021/10/22 03:32:32;;;;;;;8.08;2.20;;;22.10;40.50;;;;;;1891892;76;21509;-32
2021/10/22 03:34:57;;;;;;;8.55;1.70;;;22.10;40.50;;;;;;1891031;76;21067;-32
2021/10/22 03:37:25;;;;;;;10.60;1.90;;;22.10;40.50;;;;;;1891906;76;21508;-32
2021/10/22 03:39:52;;;;;;;7.55;2.27;;;22.10;40.80;;;;;;1891830;76;21582;-32
2021/10/22 03:42:19;;;;;;;8.28;2.67;;;22.10;40.80;;;;;;1891870;76;21513;-31
2021/10/22 03:44:47;;;;;;;7.25;1.82;;;22.10;40.70;;;;;;1891863;76;21512;-31
2021/10/22 03:47:14;;;;;;;8.58;1.98;;;22.10;40.80;;;;;;1891695;76;21524;-31
2021/10/22 03:49:42;;;;;;;8.38;1.72;;;22.10;40.50;;;;;;1891711;76;21133;-31
2021/10/22 03:52:09;;;;;;;8.23;2.55;;;22.10;40.40;;;;;;1891629;76;21144;-32
2021/10/22 03:54:37;;;;;;;9.63;1.90;;;22.10;40.50;;;;;;1891607;76;21523;-32
2021/10/22 03:57:05;;;;;;;7.45;1.42;;;22.10;40.60;;;;;;1891646;76;21571;-32
2021/10/22 03:59:32;;;;;;;10.55;1.90;;;22.10;40.60;;;;;;1891662;76;21525;-32
2021/10/22 04:02:00;;;;;;;5.70;1.55;;;22.10;40.50;;;;;;1891769;76;22287;-32
2021/10/22 04:04:29;;;;;;;7.12;1.75;;;22.10;40.50;;;;;;1891797;76;21469;-32
2021/10/22 04:06:57;;;;;;;8.75;1.75;;;22.10;40.60;;;;;;1891757;76;21067;-32
2021/10/22 04:09:26;;;;;;;7.83;1.87;;;22.10;40.50;;;;;;1891791;75;21630;-31
2021/10/22 04:11:54;;;;;;;7.15;2.10;;;22.10;40.40;;;;;;1891626;76;21048;-30
2021/10/22 04:14:22;;;;;;;6.83;1.95;;;22.10;40.10;;;;;;1891703;76;21473;-31
2021/10/22 04:16:49;;;;;;;10.72;2.30;;;22.00;40.00;;;;;;1891821;76;21078;-31
2021/10/22 04:19:17;;;;;;;9.05;2.35;;;22.00;40.10;;;;;;1891858;76;21075;-31
2021/10/22 04:21:45;;;;;;;7.62;1.90;;;22.00;40.40;;;;;;1891957;76;21071;-31
2021/10/22 04:24:12;;;;;;;9.35;2.45;;;22.00;40.30;;;;;;1891764;76;21012;-31
2021/10/22 04:26:41;;;;;;;7.08;2.02;;;22.00;40.40;;;;;;1891618;76;21529;-31
2021/10/22 04:29:08;;;;;;;12.05;2.30;;;22.00;40.50;;;;;;1891758;76;21477;-31
2021/10/22 04:31:36;;;;;;;6.15;1.77;;;22.00;40.60;;;;;;1891785;76;21570;-32
2021/10/22 04:34:03;;;;;;;5.62;1.80;;;22.00;40.70;;;;;;1891866;76;21509;-31
2021/10/22 04:36:31;;;;;;;6.70;1.70;;;22.00;40.70;;;;;;1891988;76;21032;-30
2021/10/22 04:41:44;;;;;;;8.38;1.60;;;22.10;40.90;;;;;;1891840;76;21135;-31
2021/10/22 04:44:11;;;;;;;7.62;1.90;;;22.00;41.00;;;;;;1891937;76;21501;-31
2021/10/22 04:46:39;;;;;;;7.72;2.15;;;22.00;40.90;;;;;;1891767;76;21543;-31
2021/10/22 04:49:06;;;;;;;8.78;1.50;;;22.10;40.90;;;;;;1891847;76;21071;-32
2021/10/22 04:51:34;;;;;;;7.65;2.40;;;22.10;40.90;;;;;;1891954;76;21078;-31
2021/10/22 04:54:01;;;;;;;6.80;1.60;;;22.00;40.90;;;;;;1891620;76;21079;-32
2021/10/22 04:56:32;;;;;;;9.53;1.80;;;22.00;40.90;;;;;;1891945;76;21493;-31
2021/10/22 04:58:59;;;;;;;5.47;1.60;;;22.00;40.90;;;;;;1891934;76;21516;-31
2021/10/22 05:01:27;;;;;;;7.90;1.77;;;22.00;40.90;;;;;;1891806;76;21125;-31
2021/10/22 05:03:55;;;;;;;5.40;1.50;;;22.00;40.90;;;;;;1891826;76;21271;-31
2021/10/22 05:06:23;;;;;;;5.70;1.65;;;22.00;40.90;;;;;;1891687;76;21493;-31
2021/10/22 05:08:50;;;;;;;5.78;1.27;;;22.00;40.80;;;;;;1891523;75;21624;-31
2021/10/22 05:11:18;;;;;;;8.03;1.87;;;21.90;40.90;;;;;;1891697;76;21474;-32
2021/10/22 05:13:45;;;;;;;3.70;1.40;;;21.90;41.20;;;;;;1891931;76;21589;-32
2021/10/22 05:16:14;;;;;;;5.85;1.50;;;21.90;41.30;;;;;;1891925;76;21055;-32
2021/10/22 05:18:41;;;;;;;6.08;1.90;;;21.90;41.30;;;;;;1891890;76;21599;-33
2021/10/22 05:21:09;;;;;;;13.95;2.52;;;21.90;41.40;;;;;;1891743;76;21066;-32
2021/10/22 05:23:37;;;;;;;4.50;1.47;;;21.90;41.20;;;;;;1860078;76;21075;-31
2021/10/22 05:26:04;;;;;;;7.58;1.55;;;21.90;41.90;;;;;;1891706;76;21129;-31
2021/10/22 05:28:33;;;;;;;8.05;2.15;;;21.90;41.40;;;;;;1892003;76;21046;-32
2021/10/22 05:31:00;;;;;;;7.17;1.92;;;21.80;41.00;;;;;;1891690;76;21047;-31
2021/10/22 05:33:28;;;;;;;8.98;1.98;;;21.80;41.00;;;;;;1891934;76;21071;-31
2021/10/22 05:35:55;;;;;;;9.65;1.92;;;21.80;40.90;;;;;;1891884;76;21110;-32
2021/10/22 05:38:23;;;;;;;7.33;1.55;;;21.80;41.00;;;;;;1891608;76;21044;-32
2021/10/22 05:40:51;;;;;;;5.78;1.85;;;21.80;41.10;;;;;;1891804;76;21574;-31
2021/10/22 05:43:19;;;;;;;5.85;1.87;;;21.80;41.20;;;;;;1891764;76;21591;-32
2021/10/22 05:45:46;;;;;;;6.97;1.98;;;21.80;41.20;;;;;;1891694;76;21520;-31
2021/10/22 05:48:14;;;;;;;6.90;1.87;;;21.80;41.30;;;;;;1891754;76;21582;-32
2021/10/22 05:50:41;;;;;;;9.20;1.92;;;21.80;41.40;;;;;;1891720;76;21074;-31
2021/10/22 05:53:09;;;;;;;6.95;2.22;;;21.80;41.30;;;;;;1891681;76;21083;-32
2021/10/22 05:55:37;;;;;;;12.20;2.12;;;21.80;41.20;;;;;;1891709;76;21570;-32
2021/10/22 05:58:05;;;;;;;6.60;1.98;;;21.80;41.20;;;;;;1891715;76;21485;-31
2021/10/22 06:00:34;;;;;;;9.45;2.87;;;21.80;41.20;;;;;;1891669;76;21060;-32
2021/10/22 06:03:02;;;;;;;10.10;2.10;;;21.70;41.40;;;;;;1891627;76;21067;-31
2021/10/22 06:05:29;;;;;;;8.78;1.72;;;21.80;41.60;;;;;;1891628;76;21602;-32
2021/10/22 06:07:57;;;;;;;10.60;2.47;;;21.80;41.80;;;;;;1891760;76;21493;-32
2021/10/22 06:10:24;;;;;;;8.43;2.30;;;21.80;41.50;;;;;;1891569;75;21089;-32
2021/10/22 06:12:52;;;;;;;8.75;1.80;;;21.80;41.60;;;;;;1891798;76;21044;-32
2021/10/22 06:15:19;;;;;;;8.53;1.92;;;21.80;41.70;;;;;;1891608;76;21044;-32
2021/10/22 06:17:47;;;;;;;8.45;1.95;;;21.80;41.80;;;;;;1891620;76;21529;-32
2021/10/22 06:20:27;;;;;;;12.03;2.60;;;21.80;41.70;;;;;;1891658;76;21517;-32
2021/10/22 06:25:33;;;;;;;7.37;2.10;;;21.80;41.60;;;;;;1891554;76;21521;-32
2021/10/22 06:28:01;;;;;;;12.40;2.58;;;21.70;41.50;;;;;;1891719;76;21044;-32
2021/10/22 06:30:28;;;;;;;7.78;2.10;;;21.80;41.50;;;;;;1891588;76;21517;-31
2021/10/22 06:32:56;;;;;;;10.18;2.35;;;21.80;41.50;;;;;;1891554;76;21181;-32
2021/10/22 06:35:24;;;;;;;7.42;1.95;;;21.70;41.40;;;;;;1891091;76;21132;-33
2021/10/22 06:37:51;;;;;;;8.15;1.70;;;21.80;41.50;;;;;;1891743;76;21603;-32
2021/10/22 06:40:21;;;;;;;6.60;1.95;;;21.80;41.50;;;;;;1891601;76;21493;-32
2021/10/22 06:42:48;;;;;;;9.10;1.98;;;21.80;41.40;;;;;;1891476;76;21040;-32
2021/10/22 06:45:16;;;;;;;7.90;1.77;;;21.80;41.40;;;;;;1891779;76;21052;-31
2021/10/22 06:47:47;;;;;;;8.68;1.85;;;21.80;41.50;;;;;;1891597;76;21497;-31
2021/10/22 06:50:14;;;;;;;8.18;1.95;;;21.80;41.50;;;;;;1890969;76;21070;-31
2021/10/22 06:52:42;;;;;;;5.55;1.85;;;21.80;41.60;;;;;;1891648;76;21040;-32
2021/10/22 06:55:10;;;;;;;9.93;2.02;;;21.80;41.50;;;;;;1891728;76;21080;-32
2021/10/22 06:57:40;;;;;;;9.75;2.20;;;21.80;41.40;;;;;;1891536;76;21138;-32
2021/10/22 07:00:11;;;;;;;9.35;1.80;;;21.80;41.30;;;;;;1891203;76;21465;-32
2021/10/22 07:02:51;;;;;;;6.80;2.10;;;21.80;41.40;;;;;;1891792;76;21497;-31
2021/10/22 07:07:54;;;;;;;8.53;2.20;;;21.70;41.50;;;;;;1841379;76;21145;-32
2021/10/22 07:10:22;;;;;;;9.05;2.10;;;21.70;41.60;;;;;;1891754;75;21599;-31
2021/10/22 07:12:49;;;;;;;11.53;2.27;;;21.70;41.70;;;;;;1891885;76;21035;-31
2021/10/22 07:15:17;;;;;;;11.78;2.50;;;21.70;41.70;;;;;;1891848;76;21529;-32
2021/10/22 07:17:45;;;;;;;8.20;2.22;;;21.70;41.60;;;;;;1891918;76;21067;-32
2021/10/22 07:20:14;;;;;;;8.35;2.42;;;21.80;41.60;;;;;;1891747;76;21531;-32
2021/10/22 07:22:50;;;;;;;8.68;2.72;;;21.70;41.60;;;;;;1891808;76;21172;-31
2021/10/22 07:25:19;;;;;;;6.92;2.08;;;21.80;41.70;;;;;;1891623;76;21071;-33
2021/10/22 07:27:48;;;;;;;9.90;1.72;;;21.80;41.60;;;;;;1891765;76;21149;-33
2021/10/22 07:30:16;;;;;;;8.93;2.10;;;21.70;41.50;;;;;;1891843;76;21599;-32
2021/10/22 07:32:46;;;;;;;8.68;2.17;;;21.70;41.70;;;;;;1891838;76;21571;-32
2021/10/22 07:35:13;;;;;;;9.65;2.27;;;21.70;41.70;;;;;;1891362;76;21125;-32
2021/10/22 07:37:41;;;;;;;12.18;2.58;;;21.80;41.90;;;;;;1891938;76;21555;-33
2021/10/22 07:40:09;;;;;;;6.40;1.85;;;21.80;41.80;;;;;;1891869;76;21104;-32
2021/10/22 07:42:37;;;;;;;11.68;2.42;;;21.80;42.30;;;;;;1891899;76;21149;-33
2021/10/22 07:45:06;;;;;;;8.35;2.02;;;21.80;41.90;;;;;;1891837;76;21496;-31
2021/10/22 07:47:35;;;;;;;10.13;2.45;;;21.80;41.90;;;;;;1891654;76;21032;-32
2021/10/22 07:50:05;;;;;;;11.45;2.27;;;21.80;42.00;;;;;;1891880;76;21516;-32
2021/10/22 07:52:32;;;;;;;8.65;1.82;;;21.80;42.20;;;;;;1890454;76;21048;-33
2021/10/22 07:55:00;;;;;;;9.78;2.60;;;21.70;42.30;;;;;;1885023;76;21153;-32
2021/10/22 07:57:32;;;;;;;10.18;2.83;;;21.70;42.40;;;;;;1882472;76;21067;-31
2021/10/22 08:00:00;;;;;;;10.32;1.98;;;21.70;42.50;;;;;;1882632;76;21126;-32
2021/10/22 08:02:28;;;;;;;8.65;2.15;;;21.70;42.50;;;;;;1882703;76;21663;-31
2021/10/22 08:04:56;;;;;;;8.18;2.17;;;21.70;42.50;;;;;;1882593;76;21579;-31
2021/10/22 08:07:29;;;;;;;8.23;2.17;;;21.80;42.50;;;;;;1882498;76;21588;-32
2021/10/22 08:09:58;;;;;;;7.85;2.42;;;21.80;42.50;;;;;;1882129;75;21155;-32
2021/10/22 08:12:26;;;;;;;12.20;2.42;;;21.80;42.60;;;;;;1882530;76;21521;-31
2021/10/22 08:14:54;;;;;;;9.23;2.10;;;21.80;42.60;;;;;;1882387;76;21060;-32
2021/10/22 08:17:22;;;;;;;10.18;2.58;;;21.80;42.70;;;;;;1882494;76;21474;-32
2021/10/22 08:20:05;;;;;;;8.65;2.10;;;21.80;42.50;;;;;;1882458;76;21059;-31
2021/10/22 08:22:33;;;;;;;8.78;1.82;;;21.80;42.60;;;;;;1881230;76;21081;-31
2021/10/22 08:25:09;;;;;;;7.35;1.75;;;21.80;42.80;;;;;;1881134;76;21132;-32
2021/10/22 08:27:41;;;;;;;7.40;1.95;;;21.80;42.70;;;;;;1882482;76;21032;-32
2021/10/22 08:30:11;;;;;;;7.20;2.10;;;21.80;42.80;;;;;;1882450;76;21473;-31
2021/10/22 08:32:39;;;;;;;11.45;2.77;;;21.80;42.50;;;;;;1880400;76;21032;-31
2021/10/22 08:35:07;;;;;;;15.88;2.60;;;21.80;42.60;;;;;;1882552;76;21887;-32
2021/10/22 08:37:35;;;;;;;14.35;2.50;;;21.80;42.60;;;;;;1882477;76;21053;-31
2021/10/22 08:40:05;;;;;;;9.25;1.98;;;21.80;42.60;;;;;;1882479;76;21045;-32
2021/10/22 08:42:33;;;;;;;10.50;2.47;;;21.70;42.80;;;;;;1882506;76;21024;-32
2021/10/22 08:45:01;;;;;;;11.53;2.90;;;21.70;42.70;;;;;;1882508;76;21598;-32
2021/10/22 08:47:30;;;;;;;14.18;2.50;;;21.70;42.70;;;;;;1882590;76;21505;-31
2021/10/22 08:50:01;;;;;;;6.67;2.08;;;21.70;42.70;;;;;;1881975;76;21087;-32
2021/10/22 08:52:30;;;;;;;10.95;2.65;;;21.80;42.90;;;;;;1882562;76;21126;-32
2021/10/22 08:54:59;;;;;;;7.47;2.00;;;21.70;42.80;;;;;;1887142;76;21612;-32
2021/10/22 08:57:27;;;;;;;9.23;2.37;;;21.80;42.80;;;;;;1891674;76;21239;-31
2021/10/22 08:59:58;;;;;;;6.40;2.27;;;21.80;42.70;;;;;;1891866;76;21067;-33
2021/10/22 09:02:25;;;;;;;9.80;2.17;;;21.90;42.80;;;;;;1891354;76;21052;-31
2021/10/22 09:04:57;;;;;;;7.47;2.47;;;21.90;42.60;;;;;;1891722;76;21130;-31
2021/10/22 09:07:26;;;;;;;;;;;21.90;42.60;;;;;;1894559;76;21477;-31
2021/10/22 09:10:11;;;;;;;7.72;2.40;;;21.70;42.80;;;;;;1888664;75;20399;-31
2021/10/22 09:13:04;;;;;;;9.70;2.65;;;21.70;43.20;;;;;;1890477;76;21125;-32
2021/10/22 09:15:34;;;;;;;6.75;2.00;;;21.70;43.10;;;;;;1889967;76;21125;-31
2021/10/22 09:18:07;;;;;;;7.35;1.82;;;21.80;43.20;;;;;;1891695;76;21097;-31
2021/10/22 09:20:31;;;;;;;9.70;2.12;;;21.80;43.10;;;;;;1889891;76;21059;-31
2021/10/22 09:23:01;;;;;;;13.78;2.67;;;21.80;43.10;;;;;;1891798;76;21529;-31
2021/10/22 09:25:30;;;;;;;10.45;2.67;;;21.80;43.10;;;;;;1891900;76;21059;-31
2021/10/22 09:28:05;;;;;;;8.15;2.20;;;21.80;43.20;;;;;;1891685;76;21126;-31
2021/10/22 09:30:46;;;;;;;13.75;2.33;;;21.80;43.20;;;;;;1891816;76;21081;-31
2021/10/22 09:33:15;;;;;;;10.15;2.77;;;21.70;43.40;;;;;;1891527;76;21067;-31
2021/10/22 09:35:46;;;;;;;9.45;2.35;;;21.70;43.30;;;;;;1891750;76;21126;-31
2021/10/22 09:38:25;;;;;;;9.70;2.72;;;21.70;43.30;;;;;;1891629;76;21075;-31
2021/10/22 09:40:57;;;;;;;6.45;2.22;;;21.70;43.20;;;;;;1891666;76;21051;-31
2021/10/22 09:43:29;;;;;;;7.42;2.00;;;21.70;43.30;;;;;;1891782;76;21473;-34
2021/10/22 09:46:17;;;;;;;10.35;2.55;;;21.70;43.30;;;;;;1891795;76;21509;-31
2021/10/22 09:48:46;;;;;;;8.28;2.67;;;21.70;43.70;;;;;;1891570;76;21142;-32
2021/10/22 09:51:38;;;;;;;9.08;2.27;;;21.60;43.20;;;;;;1891742;76;21489;-32
2021/10/22 09:54:09;;;;;;;8.40;2.12;;;21.60;43.30;;;;;;1891539;76;21068;-32
2021/10/22 09:56:38;;;;;;;;;;;21.60;43.30;;;;;;1894648;76;21131;-32
2021/10/22 09:59:07;;;;;;;7.95;2.15;;;21.50;43.40;;;;;;1891768;76;20117;-32
2021/10/22 10:01:44;;;;;;;7.58;2.10;;;21.50;43.90;;;;;;1891658;76;21559;-32
2021/10/22 10:04:17;;;;;;;10.23;2.55;;;21.60;43.70;;;;;;1891794;76;21067;-31
2021/10/22 10:06:46;;;;;;;10.03;2.12;;;21.70;43.60;;;;;;1889960;76;21079;-32
2021/10/22 10:09:12;;;;;;;8.23;2.22;;;21.70;43.60;;;;;;1889925;75;21087;-32
2021/10/22 10:11:41;;;;;;;7.72;2.08;;;21.70;43.50;;;;;;1891655;76;21079;-31
2021/10/22 10:14:12;;;;;;;10.40;2.30;;;21.70;43.50;;;;;;1891680;76;21079;-32
2021/10/22 10:16:38;;;;;;;8.10;2.55;;;21.70;43.60;;;;;;1891415;76;21071;-32
2021/10/22 10:19:08;;;;;;;6.50;2.00;;;21.70;43.80;;;;;;1891720;76;21063;-31
2021/10/22 10:21:45;;;;;;;9.00;2.35;;;21.70;43.80;;;;;;1891730;76;21211;-32
2021/10/22 10:24:13;;;;;;;11.53;2.85;;;21.70;43.90;;;;;;1885915;76;21580;-31
2021/10/22 10:26:40;;;;;;;7.58;2.50;;;21.70;44.00;;;;;;1891593;76;21036;-31
2021/10/22 10:29:10;;;;;;;9.08;2.37;;;21.70;44.00;;;;;;1891654;76;21031;-31
2021/10/22 10:31:42;;;;;;;8.78;2.42;;;21.60;43.90;;;;;;1891572;76;21141;-32
2021/10/22 10:34:38;;;;;;;9.58;2.58;;;21.70;44.10;;;;;;1891665;76;21465;-31
2021/10/22 10:37:06;;;;;;;11.05;2.30;;;21.70;44.20;;;;;;1891658;76;21473;-31
2021/10/22 10:39:46;;;;;;;11.00;2.47;;;21.60;44.30;;;;;;1860040;76;21075;-31
2021/10/22 10:42:37;;;;;;;9.45;2.20;;;21.60;44.30;;;;;;1891922;76;21113;-30
2021/10/22 10:45:10;;;;;;;9.85;2.52;;;21.70;44.50;;;;;;1891501;76;21067;-32
2021/10/22 10:47:45;;;;;;;7.50;2.52;;;21.70;44.60;;;;;;1891708;76;21469;-31
2021/10/22 10:50:13;;;;;;;10.18;2.75;;;21.70;44.60;;;;;;1891773;76;21129;-32
2021/10/22 10:52:43;;;;;;;10.13;2.17;;;21.70;44.70;;;;;;1891705;76;21227;-31
2021/10/22 10:58:00;;;;;;;8.30;2.20;;;21.80;44.80;;;;;;1891508;76;21067;-32
2021/10/22 11:00:41;;;;;;;8.15;1.92;;;21.80;44.80;;;;;;1891763;76;21044;-33
2021/10/22 11:03:16;;;;;;;8.08;2.00;;;21.80;44.90;;;;;;1891805;76;21067;-32
2021/10/22 11:05:48;;;;;;;6.85;1.90;;;21.80;45.00;;;;;;1881543;76;21520;-31
2021/10/22 11:08:23;;;;;;;;;;;21.90;45.00;;;;;;1894496;76;21043;-31
2021/10/22 11:11:00;;;;;;;7.67;2.15;;;21.70;45.00;;;;;;1891808;76;20151;-31
2021/10/22 11:13:46;;;;;;;9.33;2.85;;;21.60;45.60;;;;;;1891795;76;21532;-31
2021/10/22 11:19:00;;;;;;;5.80;2.10;;;21.70;45.20;;;;;;1891808;76;21150;-31
2021/10/22 11:21:29;;;;;;;7.12;2.00;;;21.70;45.10;;;;;;1891905;76;21563;-31
2021/10/22 11:24:00;;;;;;;6.75;1.40;;;21.70;45.00;;;;;;1891769;76;21062;-31
2021/10/22 11:26:28;;;;;;;8.05;2.05;;;21.80;45.10;;;;;;1891687;76;21124;-32
2021/10/22 11:29:00;;;;;;;8.60;2.02;;;21.80;45.10;;;;;;1891687;76;21024;-32
2021/10/22 11:31:40;;;;;;;6.50;1.60;;;21.80;45.10;;;;;;1891746;76;21488;-31
2021/10/22 11:34:16;;;;;;;7.80;1.57;;;21.80;45.10;;;;;;1891653;76;21196;-31
2021/10/22 11:37:12;;;;;;;8.78;1.72;;;21.80;45.10;;;;;;1891811;76;21031;-31
2021/10/22 11:39:39;;;;;;;8.13;2.15;;;21.80;45.10;;;;;;1889246;76;21466;-30
2021/10/22 11:42:09;;;;;;;8.48;1.98;;;21.70;45.20;;;;;;1891979;76;21035;-30
2021/10/22 11:44:50;;;;;;;7.00;1.50;;;21.80;45.30;;;;;;1891262;76;21139;-30
2021/10/22 11:47:19;;;;;;;7.87;1.70;;;21.80;45.20;;;;;;1891851;76;21519;-30
2021/10/22 11:49:46;;;;;;;9.45;2.22;;;21.80;45.30;;;;;;1891757;76;21454;-30
2021/10/22 11:52:16;;;;;;;5.00;1.77;;;21.90;45.20;;;;;;1891731;76;21590;-30
2021/10/22 11:54:50;;;;;;;5.72;1.52;;;21.90;45.20;;;;;;1891626;76;21195;-31
2021/10/22 11:57:22;;;;;;;7.67;1.77;;;22.00;45.30;;;;;;1882007;76;21135;-31
2021/10/22 11:59:52;;;;;;;7.20;2.20;;;22.00;45.20;;;;;;1882539;76;21172;-30
2021/10/22 12:02:21;;;;;;;6.78;2.10;;;22.00;45.10;;;;;;1882375;76;21129;-30
2021/10/22 12:04:55;;;;;;;9.20;2.10;;;22.00;45.20;;;;;;1882225;76;21521;-30
2021/10/22 12:07:23;;;;;;;7.22;1.80;;;22.10;45.10;;;;;;1881268;76;21079;-31
2021/10/22 12:09:55;;;;;;;7.53;1.98;;;22.00;45.00;;;;;;1882412;75;21534;-31
2021/10/22 12:12:21;;;;;;;7.45;1.80;;;22.10;45.20;;;;;;1882090;76;21150;-30
2021/10/22 12:14:51;;;;;;;6.20;1.55;;;22.10;45.20;;;;;;1882358;76;21068;-30
2021/10/22 12:17:24;;;;;;;7.17;1.82;;;22.10;45.10;;;;;;1882399;76;21510;-32
2021/10/22 12:19:53;;;;;;;10.28;2.30;;;22.10;45.10;;;;;;1882380;76;21102;-31
2021/10/22 12:22:26;;;;;;;7.58;2.62;;;22.10;45.00;;;;;;1882360;76;21048;-31
2021/10/22 12:24:56;;;;;;;4.10;1.32;;;22.10;45.00;;;;;;1882703;76;21116;-32
2021/10/22 12:27:28;;;;;;;8.18;1.77;;;22.10;45.00;;;;;;1882518;76;21556;-32
2021/10/22 12:30:08;;;;;;;7.03;1.90;;;22.10;45.00;;;;;;1881710;76;21052;-31
2021/10/22 12:32:44;;;;;;;8.05;1.72;;;22.10;45.00;;;;;;1882452;76;21529;-31
2021/10/22 12:35:18;;;;;;;8.40;1.87;;;22.10;45.10;;;;;;1882586;76;21114;-31
2021/10/22 12:37:59;;;;;;;10.60;1.65;;;22.10;44.90;;;;;;1882552;76;21102;-31
2021/10/22 12:40:29;;;;;;;6.37;1.42;;;22.10;45.00;;;;;;1879823;76;21486;-30
2021/10/22 12:43:09;;;;;;;9.35;1.80;;;22.00;45.00;;;;;;1881336;76;21353;-31
2021/10/22 12:45:45;;;;;;;7.05;2.02;;;22.00;45.10;;;;;;1882363;76;21578;-30
2021/10/22 12:48:12;;;;;;;9.15;2.22;;;22.00;45.30;;;;;;1882382;76;21036;-31
2021/10/22 12:50:40;;;;;;;15.50;2.42;;;22.00;45.40;;;;;;1882376;76;21075;-31
2021/10/22 12:53:13;;;;;;;6.22;1.60;;;22.00;45.30;;;;;;1882497;76;21043;-31
2021/10/22 12:55:43;;;;;;;7.87;1.77;;;22.00;45.40;;;;;;1882604;76;21111;-31
2021/10/22 12:58:21;;;;;;;9.75;1.95;;;22.00;45.30;;;;;;1882542;76;21117;-30
2021/10/22 13:01:11;;;;;;;6.45;2.00;;;22.10;45.30;;;;;;1882475;76;21524;-32
2021/10/22 13:03:40;;;;;;;10.80;1.82;;;22.10;45.20;;;;;;1882584;76;21484;-36
2021/10/22 13:06:28;;;;;;;6.00;1.47;;;22.10;45.20;;;;;;1882444;76;21508;-34
2021/10/22 13:09:16;;;;;;;11.70;2.27;;;22.10;45.20;;;;;;1881211;75;21091;-35
2021/10/22 13:11:48;;;;;;;8.20;1.70;;;22.10;45.10;;;;;;1877793;76;21150;-36